sensor_id;sensor_type;location;lat;lon;timestamp;P1;durP1;ratioP1;P2;durP2;ratioP2
8088;SDS011;57635;49.194;12.104;2023-02-04T00:00:15;5.00;;;3.83;;
8088;SDS011;57635;49.194;12.104;2023-02-04T00:02:44;6.20;;;3.60;;
8088;SDS011;57635;49.194;12.104;2023-02-04T00:05:12;8.27;;;4.73;;
8088;SDS011;57635;49.194;12.104;2023-02-04T00:07:40;9.63;;;3.87;;
8088;SDS011;57635;49.194;12.104;2023-02-04T00:10:08;8.77;;;3.60;;
8088;SDS011;57635;49.194;12.104;2023-02-04T00:12:37;6.90;;;3.67;;
8088;SDS011;57635;49.194;12.104;2023-02-04T00:15:05;8.83;;;3.77;;
8088;SDS011;57635;49.194;12.104;2023-02-04T00:17:33;11.93;;;4.37;;
8088;SDS011;57635;49.194;12.104;2023-02-04T00:20:00;9.33;;;3.67;;
8088;SDS011;57635;49.194;12.104;2023-02-04T00:22:28;17.23;;;4.53;;
8088;SDS011;57635;49.194;12.104;2023-02-04T00:24:56;5.30;;;4.07;;
8088;SDS011;57635;49.194;12.104;2023-02-04T00:27:23;5.27;;;3.87;;
8088;SDS011;57635;49.194;12.104;2023-02-04T00:29:52;11.00;;;4.53;;
8088;SDS011;57635;49.194;12.104;2023-02-04T00:32:19;11.77;;;4.10;;
8088;SDS011;57635;49.194;12.104;2023-02-04T00:34:47;8.47;;;3.20;;
8088;SDS011;57635;49.194;12.104;2023-02-04T00:37:15;8.00;;;3.50;;
8088;SDS011;57635;49.194;12.104;2023-02-04T00:39:42;8.03;;;4.07;;
8088;SDS011;57635;49.194;12.104;2023-02-04T00:42:10;9.23;;;3.90;;
8088;SDS011;57635;49.194;12.104;2023-02-04T00:44:37;6.80;;;3.30;;
8088;SDS011;57635;49.194;12.104;2023-02-04T00:47:06;9.03;;;4.00;;
8088;SDS011;57635;49.194;12.104;2023-02-04T00:49:34;8.53;;;3.53;;
8088;SDS011;57635;49.194;12.104;2023-02-04T00:52:02;11.53;;;3.97;;
8088;SDS011;57635;49.194;12.104;2023-02-04T00:54:29;11.17;;;3.57;;
8088;SDS011;57635;49.194;12.104;2023-02-04T00:56:57;6.67;;;3.67;;
8088;SDS011;57635;49.194;12.104;2023-02-04T00:59:24;9.27;;;4.70;;
8088;SDS011;57635;49.194;12.104;2023-02-04T01:01:52;9.57;;;3.33;;
8088;SDS011;57635;49.194;12.104;2023-02-04T01:04:21;6.60;;;3.27;;
8088;SDS011;57635;49.194;12.104;2023-02-04T01:06:48;5.67;;;3.37;;
8088;SDS011;57635;49.194;12.104;2023-02-04T01:09:16;11.87;;;3.30;;
8088;SDS011;57635;49.194;12.104;2023-02-04T01:11:43;8.83;;;2.97;;
8088;SDS011;57635;49.194;12.104;2023-02-04T01:14:11;9.23;;;3.97;;
8088;SDS011;57635;49.194;12.104;2023-02-04T01:16:39;8.20;;;3.20;;
8088;SDS011;57635;49.194;12.104;2023-02-04T01:19:06;5.20;;;3.00;;
8088;SDS011;57635;49.194;12.104;2023-02-04T01:21:35;7.47;;;3.10;;
8088;SDS011;57635;49.194;12.104;2023-02-04T01:24:05;5.60;;;2.30;;
8088;SDS011;57635;49.194;12.104;2023-02-04T01:26:33;10.50;;;2.80;;
8088;SDS011;57635;49.194;12.104;2023-02-04T01:29:01;4.90;;;2.83;;
8088;SDS011;57635;49.194;12.104;2023-02-04T01:31:28;13.23;;;3.83;;
8088;SDS011;57635;49.194;12.104;2023-02-04T01:33:58;9.93;;;3.47;;
8088;SDS011;57635;49.194;12.104;2023-02-04T01:36:26;8.30;;;4.13;;
8088;SDS011;57635;49.194;12.104;2023-02-04T01:38:55;7.83;;;3.17;;
8088;SDS011;57635;49.194;12.104;2023-02-04T01:41:23;7.67;;;3.67;;
8088;SDS011;57635;49.194;12.104;2023-02-04T01:43:52;7.57;;;3.20;;
8088;SDS011;57635;49.194;12.104;2023-02-04T01:46:19;7.90;;;3.50;;
8088;SDS011;57635;49.194;12.104;2023-02-04T01:48:47;11.23;;;3.53;;
8088;SDS011;57635;49.194;12.104;2023-02-04T01:51:24;4.90;;;3.17;;
8088;SDS011;57635;49.194;12.104;2023-02-04T01:53:53;10.77;;;4.23;;
8088;SDS011;57635;49.194;12.104;2023-02-04T01:56:23;13.83;;;3.60;;
8088;SDS011;57635;49.194;12.104;2023-02-04T01:58:52;6.03;;;3.20;;
8088;SDS011;57635;49.194;12.104;2023-02-04T02:01:34;6.83;;;3.87;;
8088;SDS011;57635;49.194;12.104;2023-02-04T02:04:03;8.00;;;3.10;;
8088;SDS011;57635;49.194;12.104;2023-02-04T02:06:31;10.37;;;4.27;;
8088;SDS011;57635;49.194;12.104;2023-02-04T02:08:59;12.20;;;3.20;;
8088;SDS011;57635;49.194;12.104;2023-02-04T02:11:28;6.73;;;3.03;;
8088;SDS011;57635;49.194;12.104;2023-02-04T02:13:56;8.00;;;3.10;;
8088;SDS011;57635;49.194;12.104;2023-02-04T02:16:24;5.70;;;2.40;;
8088;SDS011;57635;49.194;12.104;2023-02-04T02:18:51;6.93;;;2.13;;
8088;SDS011;57635;49.194;12.104;2023-02-04T02:21:20;3.37;;;2.33;;
8088;SDS011;57635;49.194;12.104;2023-02-04T02:23:54;9.17;;;3.13;;
8088;SDS011;57635;49.194;12.104;2023-02-04T02:26:23;6.97;;;2.80;;
8088;SDS011;57635;49.194;12.104;2023-02-04T02:28:50;6.63;;;2.90;;
8088;SDS011;57635;49.194;12.104;2023-02-04T02:31:19;7.23;;;2.97;;
8088;SDS011;57635;49.194;12.104;2023-02-04T02:33:47;4.33;;;2.97;;
8088;SDS011;57635;49.194;12.104;2023-02-04T02:36:15;5.23;;;2.20;;
8088;SDS011;57635;49.194;12.104;2023-02-04T02:38:43;4.33;;;2.57;;
8088;SDS011;57635;49.194;12.104;2023-02-04T02:41:12;4.87;;;2.93;;
8088;SDS011;57635;49.194;12.104;2023-02-04T02:43:39;4.77;;;2.20;;
8088;SDS011;57635;49.194;12.104;2023-02-04T02:46:07;2.97;;;2.70;;
8088;SDS011;57635;49.194;12.104;2023-02-04T02:48:35;7.83;;;2.70;;
8088;SDS011;57635;49.194;12.104;2023-02-04T02:51:03;5.10;;;2.37;;
8088;SDS011;57635;49.194;12.104;2023-02-04T02:53:30;5.40;;;2.73;;
8088;SDS011;57635;49.194;12.104;2023-02-04T02:55:58;6.43;;;2.63;;
8088;SDS011;57635;49.194;12.104;2023-02-04T02:58:31;8.37;;;2.87;;
8088;SDS011;57635;49.194;12.104;2023-02-04T03:01:02;7.17;;;2.63;;
8088;SDS011;57635;49.194;12.104;2023-02-04T03:03:32;10.10;;;3.03;;
8088;SDS011;57635;49.194;12.104;2023-02-04T03:06:01;8.23;;;3.40;;
8088;SDS011;57635;49.194;12.104;2023-02-04T03:08:31;7.17;;;3.07;;
8088;SDS011;57635;49.194;12.104;2023-02-04T03:10:59;3.90;;;2.30;;
8088;SDS011;57635;49.194;12.104;2023-02-04T03:13:27;5.20;;;2.83;;
8088;SDS011;57635;49.194;12.104;2023-02-04T03:15:56;6.63;;;2.77;;
8088;SDS011;57635;49.194;12.104;2023-02-04T03:18:24;7.43;;;2.77;;
8088;SDS011;57635;49.194;12.104;2023-02-04T03:20:52;5.53;;;2.33;;
8088;SDS011;57635;49.194;12.104;2023-02-04T03:23:19;5.03;;;2.23;;
8088;SDS011;57635;49.194;12.104;2023-02-04T03:25:47;12.50;;;4.33;;
8088;SDS011;57635;49.194;12.104;2023-02-04T03:28:15;8.23;;;2.40;;
8088;SDS011;57635;49.194;12.104;2023-02-04T03:30:42;3.70;;;2.63;;
8088;SDS011;57635;49.194;12.104;2023-02-04T03:33:20;3.23;;;2.17;;
8088;SDS011;57635;49.194;12.104;2023-02-04T03:35:48;7.57;;;2.73;;
8088;SDS011;57635;49.194;12.104;2023-02-04T03:38:16;4.00;;;2.30;;
8088;SDS011;57635;49.194;12.104;2023-02-04T03:40:45;6.27;;;3.30;;
8088;SDS011;57635;49.194;12.104;2023-02-04T03:43:12;5.40;;;2.20;;
8088;SDS011;57635;49.194;12.104;2023-02-04T03:45:40;6.40;;;2.17;;
8088;SDS011;57635;49.194;12.104;2023-02-04T03:48:11;3.50;;;2.27;;
8088;SDS011;57635;49.194;12.104;2023-02-04T03:50:40;6.20;;;2.27;;
8088;SDS011;57635;49.194;12.104;2023-02-04T03:53:07;4.63;;;2.20;;
8088;SDS011;57635;49.194;12.104;2023-02-04T03:55:35;2.93;;;1.90;;
8088;SDS011;57635;49.194;12.104;2023-02-04T03:58:03;6.70;;;2.63;;
8088;SDS011;57635;49.194;12.104;2023-02-04T04:00:32;6.87;;;3.07;;
8088;SDS011;57635;49.194;12.104;2023-02-04T04:02:59;9.93;;;2.70;;
8088;SDS011;57635;49.194;12.104;2023-02-04T04:05:27;4.20;;;2.20;;
8088;SDS011;57635;49.194;12.104;2023-02-04T04:07:56;7.03;;;2.40;;
8088;SDS011;57635;49.194;12.104;2023-02-04T04:10:24;6.20;;;2.60;;
8088;SDS011;57635;49.194;12.104;2023-02-04T04:12:52;3.03;;;2.50;;
8088;SDS011;57635;49.194;12.104;2023-02-04T04:15:19;7.67;;;2.60;;
8088;SDS011;57635;49.194;12.104;2023-02-04T04:17:47;5.93;;;2.40;;
8088;SDS011;57635;49.194;12.104;2023-02-04T04:20:15;5.60;;;3.00;;
8088;SDS011;57635;49.194;12.104;2023-02-04T04:22:42;6.23;;;2.67;;
8088;SDS011;57635;49.194;12.104;2023-02-04T04:25:12;6.67;;;3.13;;
8088;SDS011;57635;49.194;12.104;2023-02-04T04:27:39;7.10;;;3.10;;
8088;SDS011;57635;49.194;12.104;2023-02-04T04:30:07;6.87;;;2.67;;
8088;SDS011;57635;49.194;12.104;2023-02-04T04:32:35;4.40;;;2.47;;
8088;SDS011;57635;49.194;12.104;2023-02-04T04:35:03;5.67;;;2.57;;
8088;SDS011;57635;49.194;12.104;2023-02-04T04:37:31;6.17;;;2.73;;
8088;SDS011;57635;49.194;12.104;2023-02-04T04:40:00;6.17;;;2.87;;
8088;SDS011;57635;49.194;12.104;2023-02-04T04:42:29;5.73;;;3.50;;
8088;SDS011;57635;49.194;12.104;2023-02-04T04:44:56;7.27;;;2.83;;
8088;SDS011;57635;49.194;12.104;2023-02-04T04:47:24;6.03;;;2.70;;
8088;SDS011;57635;49.194;12.104;2023-02-04T04:49:52;6.43;;;2.93;;
8088;SDS011;57635;49.194;12.104;2023-02-04T04:52:19;5.10;;;2.70;;
8088;SDS011;57635;49.194;12.104;2023-02-04T04:54:47;8.87;;;3.23;;
8088;SDS011;57635;49.194;12.104;2023-02-04T04:57:14;8.27;;;3.00;;
8088;SDS011;57635;49.194;12.104;2023-02-04T04:59:43;10.67;;;3.20;;
8088;SDS011;57635;49.194;12.104;2023-02-04T05:02:11;3.57;;;2.53;;
8088;SDS011;57635;49.194;12.104;2023-02-04T05:04:38;2.80;;;1.50;;
8088;SDS011;57635;49.194;12.104;2023-02-04T05:07:06;2.17;;;1.20;;
8088;SDS011;57635;49.194;12.104;2023-02-04T05:09:33;2.47;;;1.07;;
8088;SDS011;57635;49.194;12.104;2023-02-04T05:12:01;1.63;;;1.17;;
8088;SDS011;57635;49.194;12.104;2023-02-04T05:14:29;1.03;;;1.03;;
8088;SDS011;57635;49.194;12.104;2023-02-04T05:16:58;1.00;;;1.00;;
8088;SDS011;57635;49.194;12.104;2023-02-04T05:19:25;1.03;;;1.00;;
8088;SDS011;57635;49.194;12.104;2023-02-04T05:21:53;1.80;;;1.13;;
8088;SDS011;57635;49.194;12.104;2023-02-04T05:24:20;1.77;;;1.20;;
8088;SDS011;57635;49.194;12.104;2023-02-04T05:26:48;1.20;;;1.20;;
8088;SDS011;57635;49.194;12.104;2023-02-04T05:29:15;0.87;;;0.87;;
8088;SDS011;57635;49.194;12.104;2023-02-04T05:31:43;1.30;;;1.30;;
8088;SDS011;57635;49.194;12.104;2023-02-04T05:34:12;1.00;;;1.00;;
8088;SDS011;57635;49.194;12.104;2023-02-04T05:36:40;2.77;;;1.37;;
8088;SDS011;57635;49.194;12.104;2023-02-04T05:39:07;1.27;;;1.17;;
8088;SDS011;57635;49.194;12.104;2023-02-04T05:41:35;2.57;;;1.17;;
8088;SDS011;57635;49.194;12.104;2023-02-04T05:44:02;1.00;;;1.00;;
8088;SDS011;57635;49.194;12.104;2023-02-04T05:46:30;1.23;;;1.13;;
8088;SDS011;57635;49.194;12.104;2023-02-04T05:48:59;1.00;;;1.00;;
8088;SDS011;57635;49.194;12.104;2023-02-04T05:51:28;1.23;;;1.20;;
8088;SDS011;57635;49.194;12.104;2023-02-04T05:53:56;1.00;;;1.00;;
8088;SDS011;57635;49.194;12.104;2023-02-04T05:56:23;1.40;;;1.30;;
8088;SDS011;57635;49.194;12.104;2023-02-04T05:58:51;1.53;;;1.40;;
8088;SDS011;57635;49.194;12.104;2023-02-04T06:01:18;1.97;;;1.87;;
8088;SDS011;57635;49.194;12.104;2023-02-04T06:03:46;2.13;;;2.03;;
8088;SDS011;57635;49.194;12.104;2023-02-04T06:06:14;1.80;;;1.70;;
8088;SDS011;57635;49.194;12.104;2023-02-04T06:08:42;1.80;;;1.43;;
8088;SDS011;57635;49.194;12.104;2023-02-04T06:11:10;1.43;;;1.43;;
8088;SDS011;57635;49.194;12.104;2023-02-04T06:13:38;1.97;;;1.80;;
8088;SDS011;57635;49.194;12.104;2023-02-04T06:16:06;1.87;;;1.77;;
8088;SDS011;57635;49.194;12.104;2023-02-04T06:18:34;2.47;;;2.27;;
8088;SDS011;57635;49.194;12.104;2023-02-04T06:21:02;2.50;;;1.73;;
8088;SDS011;57635;49.194;12.104;2023-02-04T06:23:34;1.50;;;1.50;;
8088;SDS011;57635;49.194;12.104;2023-02-04T06:26:03;1.70;;;1.60;;
8088;SDS011;57635;49.194;12.104;2023-02-04T06:28:30;2.10;;;1.90;;
8088;SDS011;57635;49.194;12.104;2023-02-04T06:30:58;2.07;;;1.97;;
8088;SDS011;57635;49.194;12.104;2023-02-04T06:33:26;1.83;;;1.77;;
8088;SDS011;57635;49.194;12.104;2023-02-04T06:35:53;3.00;;;2.00;;
8088;SDS011;57635;49.194;12.104;2023-02-04T06:38:21;2.13;;;2.03;;
8088;SDS011;57635;49.194;12.104;2023-02-04T06:40:48;2.10;;;2.00;;
8088;SDS011;57635;49.194;12.104;2023-02-04T06:43:20;2.13;;;2.00;;
8088;SDS011;57635;49.194;12.104;2023-02-04T06:45:49;1.77;;;1.67;;
8088;SDS011;57635;49.194;12.104;2023-02-04T06:48:17;1.80;;;1.80;;
8088;SDS011;57635;49.194;12.104;2023-02-04T06:50:45;2.30;;;2.20;;
8088;SDS011;57635;49.194;12.104;2023-02-04T06:53:12;2.37;;;2.03;;
8088;SDS011;57635;49.194;12.104;2023-02-04T06:55:40;2.07;;;1.97;;
8088;SDS011;57635;49.194;12.104;2023-02-04T06:58:07;2.40;;;2.30;;
8088;SDS011;57635;49.194;12.104;2023-02-04T07:00:36;3.83;;;3.53;;
8088;SDS011;57635;49.194;12.104;2023-02-04T07:03:04;2.90;;;2.70;;
8088;SDS011;57635;49.194;12.104;2023-02-04T07:05:32;2.77;;;2.60;;
8088;SDS011;57635;49.194;12.104;2023-02-04T07:08:00;3.30;;;3.10;;
8088;SDS011;57635;49.194;12.104;2023-02-04T07:10:27;3.40;;;3.10;;
8088;SDS011;57635;49.194;12.104;2023-02-04T07:12:55;3.67;;;2.77;;
8088;SDS011;57635;49.194;12.104;2023-02-04T07:15:23;3.40;;;3.20;;
8088;SDS011;57635;49.194;12.104;2023-02-04T07:17:52;4.20;;;3.80;;
8088;SDS011;57635;49.194;12.104;2023-02-04T07:20:20;3.10;;;3.00;;
8088;SDS011;57635;49.194;12.104;2023-02-04T07:22:47;2.83;;;2.73;;
8088;SDS011;57635;49.194;12.104;2023-02-04T07:25:15;3.53;;;3.33;;
8088;SDS011;57635;49.194;12.104;2023-02-04T07:27:43;3.27;;;3.07;;
8088;SDS011;57635;49.194;12.104;2023-02-04T07:30:11;3.10;;;2.90;;
8088;SDS011;57635;49.194;12.104;2023-02-04T07:32:39;2.50;;;2.40;;
8088;SDS011;57635;49.194;12.104;2023-02-04T07:35:08;2.90;;;2.70;;
8088;SDS011;57635;49.194;12.104;2023-02-04T07:37:36;2.20;;;2.10;;
8088;SDS011;57635;49.194;12.104;2023-02-04T07:40:05;2.97;;;2.80;;
8088;SDS011;57635;49.194;12.104;2023-02-04T07:42:33;2.93;;;2.77;;
8088;SDS011;57635;49.194;12.104;2023-02-04T07:45:00;2.60;;;2.50;;
8088;SDS011;57635;49.194;12.104;2023-02-04T07:47:28;2.67;;;2.47;;
8088;SDS011;57635;49.194;12.104;2023-02-04T07:49:55;2.83;;;2.50;;
8088;SDS011;57635;49.194;12.104;2023-02-04T07:52:24;3.00;;;2.80;;
8088;SDS011;57635;49.194;12.104;2023-02-04T07:54:52;2.13;;;2.03;;
8088;SDS011;57635;49.194;12.104;2023-02-04T07:57:20;1.97;;;1.87;;
8088;SDS011;57635;49.194;12.104;2023-02-04T07:59:47;2.30;;;2.20;;
8088;SDS011;57635;49.194;12.104;2023-02-04T08:02:15;2.67;;;2.47;;
8088;SDS011;57635;49.194;12.104;2023-02-04T08:04:42;1.83;;;1.80;;
8088;SDS011;57635;49.194;12.104;2023-02-04T08:07:10;1.90;;;1.80;;
8088;SDS011;57635;49.194;12.104;2023-02-04T08:09:39;2.60;;;1.90;;
8088;SDS011;57635;49.194;12.104;2023-02-04T08:12:06;2.60;;;2.40;;
8088;SDS011;57635;49.194;12.104;2023-02-04T08:14:34;1.67;;;1.67;;
8088;SDS011;57635;49.194;12.104;2023-02-04T08:17:02;1.93;;;1.90;;
8088;SDS011;57635;49.194;12.104;2023-02-04T08:19:30;2.30;;;2.20;;
8088;SDS011;57635;49.194;12.104;2023-02-04T08:21:57;1.90;;;1.80;;
8088;SDS011;57635;49.194;12.104;2023-02-04T08:24:25;2.97;;;2.70;;
8088;SDS011;57635;49.194;12.104;2023-02-04T08:26:53;1.63;;;1.63;;
8088;SDS011;57635;49.194;12.104;2023-02-04T08:29:21;2.00;;;1.90;;
8088;SDS011;57635;49.194;12.104;2023-02-04T08:31:50;1.87;;;1.77;;
8088;SDS011;57635;49.194;12.104;2023-02-04T08:34:18;1.90;;;1.80;;
8088;SDS011;57635;49.194;12.104;2023-02-04T08:36:45;1.70;;;1.70;;
8088;SDS011;57635;49.194;12.104;2023-02-04T08:39:13;1.70;;;1.67;;
8088;SDS011;57635;49.194;12.104;2023-02-04T08:41:41;1.90;;;1.80;;
8088;SDS011;57635;49.194;12.104;2023-02-04T08:44:10;3.60;;;3.30;;
8088;SDS011;57635;49.194;12.104;2023-02-04T08:46:37;1.97;;;1.93;;
8088;SDS011;57635;49.194;12.104;2023-02-04T08:49:05;1.83;;;1.83;;
8088;SDS011;57635;49.194;12.104;2023-02-04T08:51:33;1.47;;;1.37;;
8088;SDS011;57635;49.194;12.104;2023-02-04T08:54:00;1.60;;;1.60;;
8088;SDS011;57635;49.194;12.104;2023-02-04T08:56:28;1.70;;;1.60;;
8088;SDS011;57635;49.194;12.104;2023-02-04T08:58:56;1.70;;;1.60;;
8088;SDS011;57635;49.194;12.104;2023-02-04T09:01:25;1.87;;;1.77;;
8088;SDS011;57635;49.194;12.104;2023-02-04T09:03:52;1.70;;;1.60;;
8088;SDS011;57635;49.194;12.104;2023-02-04T09:06:20;1.60;;;1.57;;
8088;SDS011;57635;49.194;12.104;2023-02-04T09:08:47;1.43;;;1.43;;
8088;SDS011;57635;49.194;12.104;2023-02-04T09:11:15;1.60;;;1.60;;
8088;SDS011;57635;49.194;12.104;2023-02-04T09:13:42;1.57;;;1.53;;
8088;SDS011;57635;49.194;12.104;2023-02-04T09:16:10;1.73;;;1.73;;
8088;SDS011;57635;49.194;12.104;2023-02-04T09:18:39;1.43;;;1.43;;
8088;SDS011;57635;49.194;12.104;2023-02-04T09:21:07;1.90;;;1.80;;
8088;SDS011;57635;49.194;12.104;2023-02-04T09:23:34;2.00;;;1.90;;
8088;SDS011;57635;49.194;12.104;2023-02-04T09:26:02;1.50;;;1.50;;
8088;SDS011;57635;49.194;12.104;2023-02-04T09:28:31;1.60;;;1.60;;
8088;SDS011;57635;49.194;12.104;2023-02-04T09:30:59;2.03;;;1.93;;
8088;SDS011;57635;49.194;12.104;2023-02-04T09:33:29;2.37;;;2.27;;
8088;SDS011;57635;49.194;12.104;2023-02-04T09:35:58;1.77;;;1.70;;
8088;SDS011;57635;49.194;12.104;2023-02-04T09:38:25;2.20;;;2.00;;
8088;SDS011;57635;49.194;12.104;2023-02-04T09:40:55;2.70;;;1.93;;
8088;SDS011;57635;49.194;12.104;2023-02-04T09:43:25;1.70;;;1.60;;
8088;SDS011;57635;49.194;12.104;2023-02-04T09:45:54;1.70;;;1.60;;
8088;SDS011;57635;49.194;12.104;2023-02-04T09:48:22;1.60;;;1.50;;
8088;SDS011;57635;49.194;12.104;2023-02-04T09:50:51;1.63;;;1.53;;
8088;SDS011;57635;49.194;12.104;2023-02-04T09:53:21;1.87;;;1.77;;
8088;SDS011;57635;49.194;12.104;2023-02-04T09:55:50;2.00;;;1.90;;
8088;SDS011;57635;49.194;12.104;2023-02-04T09:58:18;1.80;;;1.70;;
8088;SDS011;57635;49.194;12.104;2023-02-04T10:00:47;2.03;;;1.93;;
8088;SDS011;57635;49.194;12.104;2023-02-04T10:03:19;1.57;;;1.57;;
8088;SDS011;57635;49.194;12.104;2023-02-04T10:05:47;1.90;;;1.87;;
8088;SDS011;57635;49.194;12.104;2023-02-04T10:08:16;1.27;;;1.27;;
8088;SDS011;57635;49.194;12.104;2023-02-04T10:10:47;1.50;;;1.50;;
8088;SDS011;57635;49.194;12.104;2023-02-04T10:13:16;2.40;;;1.80;;
8088;SDS011;57635;49.194;12.104;2023-02-04T10:15:44;1.53;;;1.43;;
8088;SDS011;57635;49.194;12.104;2023-02-04T10:18:15;2.10;;;2.00;;
8088;SDS011;57635;49.194;12.104;2023-02-04T10:20:46;1.70;;;1.60;;
8088;SDS011;57635;49.194;12.104;2023-02-04T10:23:14;1.73;;;1.63;;
8088;SDS011;57635;49.194;12.104;2023-02-04T10:25:41;1.70;;;1.60;;
8088;SDS011;57635;49.194;12.104;2023-02-04T10:28:10;1.27;;;1.27;;
8088;SDS011;57635;49.194;12.104;2023-02-04T10:30:39;1.20;;;1.20;;
8088;SDS011;57635;49.194;12.104;2023-02-04T10:33:11;1.40;;;1.40;;
8088;SDS011;57635;49.194;12.104;2023-02-04T10:35:43;1.40;;;1.40;;
8088;SDS011;57635;49.194;12.104;2023-02-04T10:38:11;1.97;;;1.87;;
8088;SDS011;57635;49.194;12.104;2023-02-04T10:40:39;2.50;;;2.40;;
8088;SDS011;57635;49.194;12.104;2023-02-04T10:43:08;2.13;;;2.03;;
8088;SDS011;57635;49.194;12.104;2023-02-04T10:45:38;1.30;;;1.30;;
8088;SDS011;57635;49.194;12.104;2023-02-04T10:48:05;1.50;;;1.50;;
8088;SDS011;57635;49.194;12.104;2023-02-04T10:50:34;2.60;;;2.40;;
8088;SDS011;57635;49.194;12.104;2023-02-04T10:53:01;2.60;;;2.40;;
8088;SDS011;57635;49.194;12.104;2023-02-04T10:55:47;2.10;;;2.00;;
8088;SDS011;57635;49.194;12.104;2023-02-04T10:58:17;3.10;;;2.10;;
8088;SDS011;57635;49.194;12.104;2023-02-04T11:00:48;2.10;;;2.00;;
8088;SDS011;57635;49.194;12.104;2023-02-04T11:03:17;1.43;;;1.43;;
8088;SDS011;57635;49.194;12.104;2023-02-04T11:05:48;1.40;;;1.40;;
8088;SDS011;57635;49.194;12.104;2023-02-04T11:08:17;1.30;;;1.30;;
8088;SDS011;57635;49.194;12.104;2023-02-04T11:10:49;1.50;;;1.50;;
8088;SDS011;57635;49.194;12.104;2023-02-04T11:13:21;1.30;;;1.30;;
8088;SDS011;57635;49.194;12.104;2023-02-04T11:16:06;1.33;;;1.23;;
8088;SDS011;57635;49.194;12.104;2023-02-04T11:18:46;1.80;;;1.70;;
8088;SDS011;57635;49.194;12.104;2023-02-04T11:21:20;1.40;;;1.40;;
8088;SDS011;57635;49.194;12.104;2023-02-04T11:23:50;1.33;;;1.33;;
8088;SDS011;57635;49.194;12.104;2023-02-04T11:26:18;1.70;;;1.67;;
8088;SDS011;57635;49.194;12.104;2023-02-04T11:29:08;2.80;;;2.10;;
8088;SDS011;57635;49.194;12.104;2023-02-04T11:31:59;1.20;;;1.20;;
8088;SDS011;57635;49.194;12.104;2023-02-04T11:34:42;1.40;;;1.40;;
8088;SDS011;57635;49.194;12.104;2023-02-04T11:37:15;1.43;;;1.43;;
8088;SDS011;57635;49.194;12.104;2023-02-04T11:40:00;1.10;;;1.10;;
8088;SDS011;57635;49.194;12.104;2023-02-04T11:42:39;1.60;;;1.50;;
8088;SDS011;57635;49.194;12.104;2023-02-04T11:45:11;1.30;;;1.30;;
8088;SDS011;57635;49.194;12.104;2023-02-04T11:47:42;2.03;;;1.93;;
8088;SDS011;57635;49.194;12.104;2023-02-04T11:50:12;2.03;;;1.77;;
8088;SDS011;57635;49.194;12.104;2023-02-04T11:52:42;2.03;;;1.93;;
8088;SDS011;57635;49.194;12.104;2023-02-04T11:55:10;2.00;;;1.90;;
8088;SDS011;57635;49.194;12.104;2023-02-04T11:57:38;1.70;;;1.60;;
8088;SDS011;57635;49.194;12.104;2023-02-04T12:00:11;1.27;;;1.27;;
8088;SDS011;57635;49.194;12.104;2023-02-04T12:02:40;1.57;;;1.47;;
8088;SDS011;57635;49.194;12.104;2023-02-04T12:05:11;2.77;;;2.27;;
8088;SDS011;57635;49.194;12.104;2023-02-04T12:07:40;3.20;;;2.83;;
8088;SDS011;57635;49.194;12.104;2023-02-04T12:10:21;1.60;;;1.60;;
8088;SDS011;57635;49.194;12.104;2023-02-04T12:12:51;1.47;;;1.43;;
8088;SDS011;57635;49.194;12.104;2023-02-04T12:15:23;1.27;;;1.27;;
8088;SDS011;57635;49.194;12.104;2023-02-04T12:18:02;1.10;;;1.10;;
8088;SDS011;57635;49.194;12.104;2023-02-04T12:20:32;1.30;;;1.20;;
8088;SDS011;57635;49.194;12.104;2023-02-04T12:23:00;2.20;;;1.23;;
8088;SDS011;57635;49.194;12.104;2023-02-04T12:25:28;1.80;;;1.73;;
8088;SDS011;57635;49.194;12.104;2023-02-04T12:27:56;2.30;;;2.20;;
8088;SDS011;57635;49.194;12.104;2023-02-04T12:30:25;1.57;;;1.47;;
8088;SDS011;57635;49.194;12.104;2023-02-04T12:32:53;1.50;;;1.40;;
8088;SDS011;57635;49.194;12.104;2023-02-04T12:35:22;1.50;;;1.43;;
8088;SDS011;57635;49.194;12.104;2023-02-04T12:37:49;1.53;;;1.43;;
8088;SDS011;57635;49.194;12.104;2023-02-04T12:40:18;1.50;;;1.50;;
8088;SDS011;57635;49.194;12.104;2023-02-04T12:42:46;1.43;;;1.43;;
8088;SDS011;57635;49.194;12.104;2023-02-04T12:45:14;2.33;;;2.23;;
8088;SDS011;57635;49.194;12.104;2023-02-04T12:47:43;1.47;;;1.47;;
8088;SDS011;57635;49.194;12.104;2023-02-04T12:50:11;2.10;;;1.90;;
8088;SDS011;57635;49.194;12.104;2023-02-04T12:52:41;1.70;;;1.60;;
8088;SDS011;57635;49.194;12.104;2023-02-04T12:55:08;2.63;;;2.43;;
8088;SDS011;57635;49.194;12.104;2023-02-04T12:57:36;2.10;;;2.00;;
8088;SDS011;57635;49.194;12.104;2023-02-04T13:00:04;1.70;;;1.60;;
8088;SDS011;57635;49.194;12.104;2023-02-04T13:02:32;1.70;;;1.60;;
8088;SDS011;57635;49.194;12.104;2023-02-04T13:05:00;1.83;;;1.73;;
8088;SDS011;57635;49.194;12.104;2023-02-04T13:07:27;1.13;;;1.13;;
8088;SDS011;57635;49.194;12.104;2023-02-04T13:09:56;1.50;;;1.50;;
8088;SDS011;57635;49.194;12.104;2023-02-04T13:12:24;1.30;;;1.30;;
8088;SDS011;57635;49.194;12.104;2023-02-04T13:14:52;3.13;;;2.90;;
8088;SDS011;57635;49.194;12.104;2023-02-04T13:17:19;2.53;;;2.43;;
8088;SDS011;57635;49.194;12.104;2023-02-04T13:19:47;1.63;;;1.63;;
8088;SDS011;57635;49.194;12.104;2023-02-04T13:22:14;1.73;;;1.63;;
8088;SDS011;57635;49.194;12.104;2023-02-04T13:24:42;1.50;;;1.50;;
8088;SDS011;57635;49.194;12.104;2023-02-04T13:27:11;2.77;;;2.60;;
8088;SDS011;57635;49.194;12.104;2023-02-04T13:29:40;2.97;;;2.67;;
8088;SDS011;57635;49.194;12.104;2023-02-04T13:32:07;2.20;;;2.10;;
8088;SDS011;57635;49.194;12.104;2023-02-04T13:34:35;1.40;;;1.40;;
8088;SDS011;57635;49.194;12.104;2023-02-04T13:37:03;1.50;;;1.50;;
8088;SDS011;57635;49.194;12.104;2023-02-04T13:39:30;1.50;;;1.40;;
8088;SDS011;57635;49.194;12.104;2023-02-04T13:41:58;1.27;;;1.27;;
8088;SDS011;57635;49.194;12.104;2023-02-04T13:44:27;1.47;;;1.47;;
8088;SDS011;57635;49.194;12.104;2023-02-04T13:46:54;1.23;;;1.23;;
8088;SDS011;57635;49.194;12.104;2023-02-04T13:49:22;1.70;;;1.60;;
8088;SDS011;57635;49.194;12.104;2023-02-04T13:51:49;1.77;;;1.77;;
8088;SDS011;57635;49.194;12.104;2023-02-04T13:54:17;1.83;;;1.73;;
8088;SDS011;57635;49.194;12.104;2023-02-04T13:56:45;1.40;;;1.40;;
8088;SDS011;57635;49.194;12.104;2023-02-04T13:59:12;1.50;;;1.40;;
8088;SDS011;57635;49.194;12.104;2023-02-04T14:01:41;1.30;;;1.30;;
8088;SDS011;57635;49.194;12.104;2023-02-04T14:04:09;2.20;;;2.03;;
8088;SDS011;57635;49.194;12.104;2023-02-04T14:06:45;1.80;;;1.70;;
8088;SDS011;57635;49.194;12.104;2023-02-04T14:09:13;1.50;;;1.40;;
8088;SDS011;57635;49.194;12.104;2023-02-04T14:11:40;1.30;;;1.30;;
8088;SDS011;57635;49.194;12.104;2023-02-04T14:14:08;1.67;;;1.60;;
8088;SDS011;57635;49.194;12.104;2023-02-04T14:16:36;1.63;;;1.53;;
8088;SDS011;57635;49.194;12.104;2023-02-04T14:19:05;1.60;;;1.60;;
8088;SDS011;57635;49.194;12.104;2023-02-04T14:21:32;1.87;;;1.77;;
8088;SDS011;57635;49.194;12.104;2023-02-04T14:24:00;1.27;;;1.27;;
8088;SDS011;57635;49.194;12.104;2023-02-04T14:26:27;1.10;;;1.10;;
8088;SDS011;57635;49.194;12.104;2023-02-04T14:28:55;1.67;;;1.57;;
8088;SDS011;57635;49.194;12.104;2023-02-04T14:31:22;1.77;;;1.67;;
8088;SDS011;57635;49.194;12.104;2023-02-04T14:33:50;2.17;;;2.07;;
8088;SDS011;57635;49.194;12.104;2023-02-04T14:36:19;2.23;;;2.13;;
8088;SDS011;57635;49.194;12.104;2023-02-04T14:38:49;8.53;;;7.37;;
8088;SDS011;57635;49.194;12.104;2023-02-04T14:41:16;2.50;;;2.40;;
8088;SDS011;57635;49.194;12.104;2023-02-04T14:43:46;2.03;;;1.93;;
8088;SDS011;57635;49.194;12.104;2023-02-04T14:46:14;3.90;;;3.60;;
8088;SDS011;57635;49.194;12.104;2023-02-04T14:48:41;3.00;;;2.90;;
8088;SDS011;57635;49.194;12.104;2023-02-04T14:51:10;3.23;;;3.03;;
8088;SDS011;57635;49.194;12.104;2023-02-04T14:53:40;2.00;;;1.90;;
8088;SDS011;57635;49.194;12.104;2023-02-04T14:56:13;4.77;;;4.10;;